Airport details for: LEIB (Spain)

Metar

LEIB 152100Z 31006KT 9999 FEW048 12/07 Q1011 NOSIG

General details

ICAO: LEIB
IATA: IBZ
Name (city): Ibiza
Major:
Country: Spain
vACC: vACC Spain
Description:

Ibiza Airport LEIB

Ibiza Airport (IATA: IBZ, ICAO: LEIB) (Catalan: Aeroport d'Eivissa, Spanish: Aeropuerto de Ibiza) is the airport serving the Balearic Islands of Ibiza and Formentera in Spain, used by 95% of all people who arrive at or depart from these two islands. The airport is located 7 km (4.3 mi) southwest of Ibiza Town.[2]

The airport traffic is characterised by the seasonal nature of the tourist industry, and as such it handles over 85% of the total volume of passengers during the six months of the peak season (May–September). The airport also offers year-round scheduled inter-island and mainland traffic, with flights operating to primary business hubs, such as Barcelona, Madrid and Palma de Mallorca.

Scenery links:
FS9 scenery:
FSX/P3D scenery:
XP scenery:
Elevation: 24 ft.
Transition altitude: 6000 ft.
MSA: 9100 ft.
Latitude: 38.872778
Longitude: 1.373056
LEIB Charts
LEIB Notams
LEIB Online stations

Runways

Number Course Length Elevation Lat Lon ILS ILS freq ILS FAC GP
06 62° 9186ft / 2800 m 17ft 38.866945 1.358872 111.1 62° 3.0°
24 242° 9186ft / 2800 m 19ft 38.878745 1.387378 109.5 242° 3.0°